Time;durP1;ratioP1;P1;durP2;ratioP2;P2;SDS_P1;SDS_P2;PMS_P1;PMS_P2;Temp;Humidity;BMP_temperature;BMP_pressure;BME280_temperature;BME280_humidity;BME280_pressure;Samples;Min_cycle;Max_cycle;Signal;HPM_P1;HPM_P2
2022/10/03 00:02:20;;;;;;;0.80;0.80;;;;;;;8.91;73.80;96351.28;6126372;23;20064;-69
2022/10/03 00:05:02;;;;;;;0.70;0.70;;;;;;;8.90;73.80;96365.22;6126573;23;20022;-67
2022/10/03 00:07:49;;;;;;;0.85;0.85;;;;;;;8.91;74.10;96356.50;6127059;23;20465;-67
2022/10/03 00:10:30;;;;;;;0.82;0.80;;;;;;;8.84;74.35;96357.59;6127082;23;20392;-66
2022/10/03 00:13:09;;;;;;;0.80;0.80;;;;;;;8.81;74.22;96345.53;6126573;23;20030;-67
2022/10/03 00:15:48;;;;;;;2.60;0.82;;;;;;;8.81;74.53;96350.75;6126737;23;20026;-67
2022/10/03 00:18:35;;;;;;;0.80;0.80;;;;;;;8.82;74.98;96355.06;6127016;23;20314;-66
2022/10/03 00:21:21;;;;;;;0.80;0.80;;;;;;;8.87;74.71;96349.69;6126888;23;20457;-66
2022/10/03 00:23:58;;;;;;;1.00;1.00;;;;;;;8.72;74.52;96343.22;6126625;23;20021;-67
2022/10/03 00:26:37;;;;;;;0.70;0.70;;;;;;;8.64;75.16;96345.25;6126757;23;20027;-65
2022/10/03 00:29:25;;;;;;;1.27;0.90;;;;;;;8.63;75.03;96344.38;6126704;23;20026;-66
2022/10/03 00:32:12;;;;;;;0.70;0.70;;;;;;;8.65;75.09;96340.00;6126939;23;20018;-67
2022/10/03 00:35:01;;;;;;;0.70;0.70;;;;;;;8.72;74.91;96340.63;6126319;23;20057;-67
2022/10/03 00:37:34;;;;;;;0.70;0.70;;;;;;;8.77;75.06;96340.47;6126841;23;20026;-66
2022/10/03 00:40:32;;;;;;;0.80;0.80;;;;;;;8.80;74.99;96348.19;6126717;23;20077;-67
2022/10/03 00:43:40;;;;;;;0.90;0.90;;;;;;;8.83;74.90;96354.16;6126494;23;20033;-66
2022/10/03 00:46:33;;;;;;;0.68;0.68;;;;;;;8.76;75.12;96347.44;6126418;23;20041;-67
2022/10/03 00:49:46;;;;;;;0.60;0.60;;;;;;;8.70;74.92;96342.44;6126889;23;20085;-67
2022/10/03 00:52:49;;;;;;;0.95;0.80;;;;;;;8.63;75.51;96331.34;6126794;23;20050;-67
2022/10/03 00:55:28;;;;;;;0.82;0.82;;;;;;;8.53;75.92;96333.41;6125113;23;20018;-66
2022/10/03 00:58:08;;;;;;;0.68;0.68;;;;;;;8.49;75.55;96330.94;6126450;23;20022;-67
2022/10/03 01:00:36;;;;;;;2.90;1.40;;;;;;;8.49;75.92;96330.94;6126585;23;20030;-67
2022/10/03 01:03:30;;;;;;;0.88;0.88;;;;;;;8.42;75.95;96327.66;6126258;23;20024;-66
2022/10/03 01:06:20;;;;;;;0.77;0.77;;;;;;;8.28;76.43;96334.16;6126241;23;20022;-67
2022/10/03 01:09:12;;;;;;;1.05;0.88;;;;;;;8.34;77.30;96336.59;6126312;23;20178;-67
2022/10/03 01:12:00;;;;;;;0.80;0.80;;;;;;;8.40;76.95;96332.09;6126451;23;20061;-66
2022/10/03 01:14:56;;;;;;;0.75;0.75;;;;;;;8.40;77.04;96337.31;6125950;23;20018;-67
2022/10/03 01:17:32;;;;;;;0.75;0.75;;;;;;;8.46;76.34;96330.13;6123446;23;20026;-67
2022/10/03 01:20:13;;;;;;;0.90;0.90;;;;;;;8.47;76.28;96326.63;6126815;23;20021;-67
2022/10/03 01:23:09;;;;;;;0.75;0.75;;;;;;;8.44;77.03;96321.53;6126514;23;20026;-67
2022/10/03 01:25:41;;;;;;;1.65;0.85;;;;;;;8.29;78.09;96311.59;6126668;23;20025;-67
2022/10/03 01:31:28;;;;;;;0.93;0.90;;;;;;;8.28;78.11;96318.53;6126534;23;20034;-67
2022/10/03 01:34:05;;;;;;;0.98;0.93;;;;;;;8.24;77.59;96303.91;6126374;23;20476;-66
2022/10/03 01:36:39;;;;;;;0.90;0.90;;;;;;;8.23;78.16;96325.66;6126280;23;20026;-67
2022/10/03 01:39:16;;;;;;;1.00;1.00;;;;;;;8.28;78.51;96330.75;6126581;23;20022;-68
2022/10/03 01:41:50;;;;;;;3.88;0.90;;;;;;;8.32;77.65;96320.16;6126698;23;20018;-67
2022/10/03 01:44:23;;;;;;;0.75;0.75;;;;;;;8.31;77.22;96315.00;6126227;23;20392;-67
2022/10/03 01:46:58;;;;;;;0.75;0.75;;;;;;;8.38;77.45;96316.50;6126463;23;20022;-66
2022/10/03 01:49:34;;;;;;;0.90;0.90;;;;;;;8.37;77.05;96314.78;6128094;23;20029;-67
2022/10/03 01:52:10;;;;;;;0.90;0.90;;;;;;;8.31;76.48;96308.00;6128126;23;20029;-66
2022/10/03 01:54:43;;;;;;;0.70;0.70;;;;;;;8.30;76.35;96308.06;6127930;23;20024;-67
2022/10/03 01:57:20;;;;;;;0.77;0.77;;;;;;;8.27;75.97;96305.56;6127940;23;20080;-66
2022/10/03 01:59:58;;;;;;;1.10;1.00;;;;;;;8.25;76.52;96307.38;6128533;23;20322;-66
2022/10/03 02:02:35;;;;;;;0.80;0.80;;;;;;;8.24;76.55;96303.06;6127609;23;20453;-66
2022/10/03 02:05:08;;;;;;;0.80;0.80;;;;;;;8.21;76.62;96306.63;6127713;23;20022;-67
2022/10/03 02:07:46;;;;;;;0.80;0.80;;;;;;;8.23;76.96;96307.44;6127955;23;20453;-67
2022/10/03 02:10:24;;;;;;;1.00;0.90;;;;;;;8.28;76.29;96302.91;6128219;23;20018;-66
2022/10/03 02:13:01;;;;;;;0.82;0.82;;;;;;;8.20;76.64;96311.00;6128013;23;20449;-67
2022/10/03 02:15:35;;;;;;;0.60;0.60;;;;;;;8.21;76.86;96314.44;6128026;23;20356;-67
2022/10/03 02:18:14;;;;;;;0.77;0.77;;;;;;;8.15;76.20;96307.66;6128097;23;20069;-67
2022/10/03 02:20:48;;;;;;;2.67;0.88;;;;;;;8.18;76.09;96315.38;6127689;23;20330;-66
2022/10/03 02:23:39;;;;;;;0.90;0.90;;;;;;;8.22;76.30;96316.97;6128145;23;20382;-66
2022/10/03 02:26:31;;;;;;;1.30;0.85;;;;;;;8.22;76.13;96316.97;6127548;23;20026;-66
2022/10/03 02:29:22;;;;;;;0.80;0.80;;;;;;;8.21;76.41;96319.63;6128051;23;20028;-66
2022/10/03 02:32:28;;;;;;;0.65;0.65;;;;;;;8.18;76.50;96323.22;6127719;23;20026;-67
2022/10/03 02:35:42;;;;;;;0.80;0.80;;;;;;;8.22;76.63;96327.41;6127910;23;20022;-66
2022/10/03 02:38:34;;;;;;;0.50;0.50;;;;;;;8.18;76.28;96331.03;5981781;24;20107;-66
2022/10/03 02:41:30;;;;;;;0.80;0.80;;;;;;;8.15;76.28;96325.91;5981888;24;20028;-66
2022/10/03 02:44:30;;;;;;;0.65;0.65;;;;;;;8.12;76.91;96320.78;6088209;23;20018;-66
2022/10/03 02:47:43;;;;;;;0.93;0.80;;;;;;;8.03;77.53;96334.97;6118097;23;20022;-67
2022/10/03 02:50:28;;;;;;;0.60;0.60;;;;;;;8.03;76.95;96334.97;6127363;23;20460;-66
2022/10/03 02:53:35;;;;;;;0.60;0.60;;;;;;;7.98;76.85;96329.06;6127539;23;20085;-66
2022/10/03 02:56:41;;;;;;;0.60;0.60;;;;;;;7.88;76.98;96327.59;6127705;23;20089;-67
2022/10/03 02:59:33;;;;;;;0.70;0.70;;;;;;;7.76;77.28;96315.81;5981374;24;20027;-66
2022/10/03 03:02:32;;;;;;;0.70;0.70;;;;;;;7.72;77.88;96309.88;5986287;23;20028;-66
2022/10/03 03:05:24;;;;;;;0.70;0.70;;;;;;;7.65;78.70;96308.34;6127629;23;20076;-67
2022/10/03 03:08:20;;;;;;;0.80;0.80;;;;;;;7.71;78.75;96300.34;6127647;23;20033;-66
2022/10/03 03:11:07;;;;;;;0.70;0.70;;;;;;;7.77;79.14;96297.53;6121085;23;20029;-66
2022/10/03 03:14:02;;;;;;;0.70;0.70;;;;;;;7.79;79.02;96303.56;6127128;23;20026;-67
2022/10/03 03:16:59;;;;;;;1.58;0.95;;;;;;;7.83;78.71;96299.13;6127734;23;20025;-65
2022/10/03 03:19:46;;;;;;;0.65;0.65;;;;;;;7.81;78.96;96293.97;6099147;23;20017;-66
2022/10/03 03:22:33;;;;;;;0.93;0.90;;;;;;;7.77;79.10;96291.50;6127224;23;20018;-67
2022/10/03 03:25:34;;;;;;;0.80;0.80;;;;;;;7.82;79.03;96300.88;6127370;23;20029;-67
2022/10/03 03:28:22;;;;;;;0.73;0.70;;;;;;;7.87;78.72;96287.72;6126981;23;20022;-67
2022/10/03 03:31:00;;;;;;;0.75;0.75;;;;;;;7.85;78.24;96281.69;6127485;23;20022;-66
2022/10/03 03:33:38;;;;;;;2.72;0.65;;;;;;;7.86;78.01;96283.41;6127149;23;20025;-66
2022/10/03 03:36:17;;;;;;;1.20;0.75;;;;;;;7.92;78.12;96282.34;6127282;23;20018;-67
2022/10/03 03:38:55;;;;;;;0.80;0.80;;;;;;;7.93;77.84;96286.66;6127036;23;20029;-67
2022/10/03 03:41:38;;;;;;;0.77;0.77;;;;;;;7.91;77.56;96278.88;6127066;23;20018;-67
2022/10/03 03:44:33;;;;;;;0.70;0.70;;;;;;;7.86;77.03;96274.72;6127043;23;20029;-66
2022/10/03 03:47:19;;;;;;;0.70;0.70;;;;;;;7.81;76.92;96267.91;6117411;23;20032;-66
2022/10/03 03:50:13;;;;;;;1.00;0.90;;;;;;;7.76;77.34;96256.78;6127360;23;20077;-66
2022/10/03 03:52:56;;;;;;;0.90;0.90;;;;;;;7.71;77.29;96259.53;6126835;23;20056;-68
2022/10/03 03:55:52;;;;;;;0.63;0.63;;;;;;;7.68;77.24;96256.19;6126773;23;20093;-67
2022/10/03 03:58:26;;;;;;;0.77;0.77;;;;;;;7.71;77.00;96243.91;6126847;23;20081;-67
2022/10/03 04:01:10;;;;;;;0.90;0.90;;;;;;;7.70;76.94;96237.00;6126436;23;20021;-67
2022/10/03 04:03:55;;;;;;;0.90;0.80;;;;;;;7.68;77.08;96235.34;6126822;23;20105;-67
2022/10/03 04:06:42;;;;;;;0.80;0.80;;;;;;;7.68;77.26;96228.38;6126999;23;20026;-66
2022/10/03 04:09:45;;;;;;;0.55;0.55;;;;;;;7.66;76.77;96222.38;6126319;23;20032;-66
2022/10/03 04:12:28;;;;;;;0.70;0.70;;;;;;;7.62;76.75;96226.00;6064097;23;20022;-66
2022/10/03 04:15:16;;;;;;;0.75;0.75;;;;;;;7.61;77.65;96234.69;6127198;23;20349;-67
2022/10/03 04:21:10;;;;;;;0.60;0.60;;;;;;;7.64;77.51;96211.16;6126881;23;20025;-67
2022/10/03 04:24:03;;;;;;;0.93;0.90;;;;;;;7.70;77.25;96217.91;6127100;23;20364;-67
2022/10/03 04:26:51;;;;;;;0.70;0.70;;;;;;;7.73;77.60;96217.81;6126568;23;20026;-67
2022/10/03 04:29:42;;;;;;;0.70;0.70;;;;;;;7.76;77.57;96227.28;6127026;23;20022;-66
2022/10/03 04:32:31;;;;;;;0.85;0.70;;;;;;;7.80;77.20;96221.09;6126498;23;20101;-67
2022/10/03 04:35:25;;;;;;;0.70;0.70;;;;;;;7.82;77.11;96220.13;6123570;23;20421;-67
2022/10/03 04:38:05;;;;;;;0.70;0.70;;;;;;;7.80;77.26;96221.09;6126533;23;20022;-65
2022/10/03 04:40:50;;;;;;;1.23;0.98;;;;;;;7.80;77.34;96229.75;6127158;23;20022;-67
2022/10/03 04:43:34;;;;;;;0.63;0.63;;;;;;;7.74;77.63;96227.34;6126708;23;20056;-67
2022/10/03 04:46:26;;;;;;;1.08;0.90;;;;;;;7.68;77.52;96240.56;6126612;23;20022;-67
2022/10/03 04:49:00;;;;;;;0.80;0.80;;;;;;;7.66;78.08;96237.16;6126746;23;20100;-67
2022/10/03 04:51:43;;;;;;;0.60;0.60;;;;;;;7.75;77.76;96243.81;6126620;23;20081;-67
2022/10/03 04:54:22;;;;;;;0.70;0.70;;;;;;;7.80;77.64;96252.34;6126464;23;20037;-66
2022/10/03 04:56:57;;;;;;;1.15;1.08;;;;;;;7.77;77.96;96250.66;6126313;23;20026;-66
2022/10/03 04:59:41;;;;;;;0.70;0.70;;;;;;;7.86;78.50;96254.75;6126394;23;20022;-66
2022/10/03 05:02:22;;;;;;;0.80;0.80;;;;;;;7.89;78.69;96246.81;6126345;23;20448;-67
2022/10/03 05:05:18;;;;;;;0.60;0.60;;;;;;;8.08;78.92;96254.91;6126686;23;20150;-66
2022/10/03 05:07:53;;;;;;;0.90;0.90;;;;;;;9.32;76.12;96246.31;6126442;23;20472;-66
2022/10/03 05:10:30;;;;;;;0.70;0.70;;;;;;;11.08;69.77;96240.13;6126660;23;20018;-66
2022/10/03 05:13:10;;;;;;;0.60;0.60;;;;;;;12.90;63.22;96246.31;6126840;23;20314;-67
2022/10/03 05:15:52;;;;;;;0.40;0.40;;;;;;;14.78;57.42;96248.28;6126761;23;20344;-67
2022/10/03 05:18:34;;;;;;;0.70;0.47;;;;;;;16.36;52.37;96256.19;6126424;23;20022;-66
2022/10/03 05:21:11;;;;;;;0.98;0.68;;;;;;;17.76;48.40;96265.19;6127123;23;20028;-67
2022/10/03 05:23:51;;;;;;;0.32;0.32;;;;;;;18.68;45.42;96263.88;6128076;23;20093;-67
2022/10/03 05:26:27;;;;;;;0.30;0.30;;;;;;;19.34;43.69;96256.31;6128103;23;20026;-67
2022/10/03 05:29:06;;;;;;;0.30;0.30;;;;;;;20.35;42.46;96262.56;6128048;23;20060;-67
2022/10/03 05:31:49;;;;;;;0.30;0.30;;;;;;;21.31;40.40;96251.91;6128346;23;20022;-67
2022/10/03 05:34:36;;;;;;;0.40;0.32;;;;;;;21.96;39.12;96255.22;6128100;23;20445;-65
2022/10/03 05:37:35;;;;;;;0.40;0.40;;;;;;;21.34;38.73;96253.44;6128045;23;20025;-65
2022/10/03 05:40:08;;;;;;;0.40;0.30;;;;;;;20.50;40.61;96255.16;6128282;23;20022;-66
2022/10/03 05:42:54;;;;;;;0.30;0.30;;;;;;;19.85;42.50;96254.09;6128508;23;20414;-65
2022/10/03 05:45:30;;;;;;;0.75;0.30;;;;;;;18.89;44.71;96243.81;6102276;23;20017;-66
2022/10/03 05:48:13;;;;;;;0.40;0.40;;;;;;;18.17;45.69;96265.84;6101992;23;20026;-67
2022/10/03 05:51:18;;;;;;;0.32;0.32;;;;;;;17.48;47.14;96267.19;6127984;23;20100;-67
2022/10/03 05:54:22;;;;;;;1.38;0.43;;;;;;;16.80;50.86;96248.88;6128384;23;20049;-67
2022/10/03 05:57:24;;;;;;;1.25;0.40;;;;;;;16.27;53.18;96244.44;6127883;23;20026;-67
2022/10/03 06:00:10;;;;;;;0.43;0.43;;;;;;;15.82;54.63;96249.94;6128151;23;20064;-67
2022/10/03 06:03:24;;;;;;;1.02;0.60;;;;;;;15.55;55.62;96251.59;6127745;23;20025;-67
2022/10/03 06:06:06;;;;;;;0.50;0.50;;;;;;;15.37;56.83;96257.09;6128002;23;20022;-66
2022/10/03 06:08:55;;;;;;;0.60;0.60;;;;;;;15.49;57.79;96252.84;6127810;23;20520;-65
2022/10/03 06:11:54;;;;;;;0.40;0.40;;;;;;;15.68;57.81;96256.94;6127886;23;20018;-66
2022/10/03 06:14:33;;;;;;;0.57;0.57;;;;;;;15.74;57.23;96261.81;6123818;23;20101;-66
2022/10/03 06:17:24;;;;;;;0.95;0.50;;;;;;;15.73;56.11;96265.41;6127735;23;20467;-66
2022/10/03 06:19:54;;;;;;;;;;;;;;;15.72;55.22;96254.97;6128184;23;20026;-66
2022/10/03 06:23:10;;;;;;;0.70;0.70;;;;;;;15.71;56.25;96248.00;6127699;23;19917;-66
2022/10/03 06:26:21;;;;;;;0.60;0.57;;;;;;;15.52;55.67;96244.72;6128004;23;20025;-66
2022/10/03 06:29:21;;;;;;;1.55;0.70;;;;;;;15.51;56.55;96250.94;6059794;23;20026;-66
2022/10/03 06:32:18;;;;;;;1.83;0.73;;;;;;;15.69;57.48;96239.34;6127749;23;20105;-66
2022/10/03 06:35:26;;;;;;;0.60;0.60;;;;;;;15.70;55.59;96233.09;6127933;23;20030;-66
2022/10/03 06:38:28;;;;;;;0.63;0.63;;;;;;;15.76;59.13;96222.19;6127699;23;20457;-67
2022/10/03 06:41:31;;;;;;;1.13;0.60;;;;;;;16.19;53.88;96221.19;6127641;23;20026;-67
2022/10/03 06:44:22;;;;;;;0.40;0.40;;;;;;;17.15;56.50;96237.72;6127914;23;20348;-65
2022/10/03 06:47:06;;;;;;;0.57;0.57;;;;;;;17.66;53.01;96235.94;6127458;23;20026;-66
2022/10/03 06:49:55;;;;;;;1.17;0.45;;;;;;;19.14;50.09;96234.84;6127561;23;20057;-66
2022/10/03 06:52:48;;;;;;;0.77;0.52;;;;;;;20.84;45.23;96223.91;6127537;23;20356;-66
2022/10/03 06:55:40;;;;;;;0.40;0.38;;;;;;;22.38;42.34;96219.53;6079754;23;20026;-66
2022/10/03 06:58:42;;;;;;;0.40;0.40;;;;;;;23.66;40.38;96222.91;6127471;23;20456;-65
2022/10/03 07:01:44;;;;;;;0.45;0.45;;;;;;;24.74;35.54;96230.16;6120649;23;20029;-65
2022/10/03 07:04:39;;;;;;;0.30;0.30;;;;;;;25.35;33.96;96242.78;6127592;23;20025;-65
2022/10/03 07:07:46;;;;;;;0.40;0.40;;;;;;;25.54;33.78;96245.38;6069377;23;20026;-65
2022/10/03 07:10:37;;;;;;;0.40;0.40;;;;;;;25.53;32.21;96249.06;6127753;23;20026;-65
2022/10/03 07:13:39;;;;;;;0.30;0.30;;;;;;;25.31;31.96;96252.13;6127936;23;20322;-65
2022/10/03 07:16:31;;;;;;;0.75;0.50;;;;;;;25.49;32.74;96253.91;6127464;23;20025;-65
2022/10/03 07:19:25;;;;;;;0.50;0.50;;;;;;;25.48;32.37;96255.75;6127402;23;20096;-66
2022/10/03 07:22:41;;;;;;;0.50;0.50;;;;;;;25.48;33.20;96246.88;6127373;23;20405;-65
2022/10/03 07:25:33;;;;;;;0.98;0.68;;;;;;;25.45;33.46;96253.41;6127222;23;20028;-66
2022/10/03 07:28:23;;;;;;;0.30;0.30;;;;;;;25.55;32.20;96242.56;6127362;23;20025;-65
2022/10/03 07:31:04;;;;;;;0.60;0.60;;;;;;;25.44;30.89;96242.84;6109230;23;20105;-66
2022/10/03 07:33:51;;;;;;;1.52;0.52;;;;;;;25.54;32.54;96240.03;6127341;23;20036;-65
2022/10/03 07:40:05;;;;;;;0.98;0.50;;;;;;;25.57;31.51;96247.75;6127418;23;20106;-66
2022/10/03 07:43:35;;;;;;;0.40;0.40;;;;;;;25.38;31.11;96236.28;6102843;23;20022;-64
2022/10/03 07:46:30;;;;;;;0.47;0.47;;;;;;;25.13;31.89;96228.09;6009609;23;20059;-66
2022/10/03 07:49:39;;;;;;;1.25;0.50;;;;;;;24.56;32.73;96227.50;6121157;23;20025;-66
2022/10/03 07:52:34;;;;;;;0.60;0.45;;;;;;;24.09;32.58;96231.22;6012671;23;20064;-66
2022/10/03 07:55:30;;;;;;;0.50;0.43;;;;;;;23.59;33.81;96233.34;6122685;23;20022;-67
2022/10/03 07:58:28;;;;;;;0.40;0.40;;;;;;;23.26;34.90;96238.22;6126957;23;20105;-65
2022/10/03 08:01:24;;;;;;;0.30;0.30;;;;;;;22.95;34.90;96247.28;6122769;23;20046;-65
2022/10/03 08:04:21;;;;;;;0.32;0.32;;;;;;;22.61;35.42;96240.59;6127195;23;20026;-65
2022/10/03 08:06:56;;;;;;;0.40;0.40;;;;;;;22.32;36.11;96241.41;6047160;23;20077;-65
2022/10/03 08:09:37;;;;;;;0.38;0.38;;;;;;;21.96;37.77;96234.78;6126808;23;20018;-66
2022/10/03 08:12:40;;;;;;;0.60;0.52;;;;;;;21.53;37.92;96243.88;6126868;23;20033;-65
2022/10/03 08:15:22;;;;;;;1.10;0.50;;;;;;;21.08;38.61;96243.25;6126763;23;20536;-65
2022/10/03 08:18:29;;;;;;;1.25;0.70;;;;;;;20.82;39.80;96251.59;6127173;23;20452;-65
2022/10/03 08:20:59;;;;;;;0.47;0.47;;;;;;;20.68;39.92;96242.16;6126906;23;20032;-65
2022/10/03 08:24:02;;;;;;;1.02;0.73;;;;;;;20.55;40.23;96244.97;6126775;23;20026;-65
2022/10/03 08:26:48;;;;;;;0.57;0.57;;;;;;;20.49;40.39;96246.31;6126949;23;20022;-65
2022/10/03 08:29:28;;;;;;;0.52;0.50;;;;;;;20.32;41.38;96253.03;6126707;23;20022;-65
2022/10/03 08:32:46;;;;;;;0.60;0.60;;;;;;;20.33;41.31;96252.06;6127160;23;20054;-65
2022/10/03 08:35:46;;;;;;;1.95;0.70;;;;;;;20.32;41.86;96245.09;6127224;23;20026;-65
2022/10/03 08:38:35;;;;;;;0.60;0.60;;;;;;;20.48;41.62;96242.00;6126983;23;20021;-64
2022/10/03 08:41:37;;;;;;;1.20;0.68;;;;;;;20.68;41.01;96242.97;6126624;23;20068;-65
2022/10/03 08:44:35;;;;;;;0.80;0.80;;;;;;;20.82;40.40;96239.16;6126677;23;20082;-65
2022/10/03 08:47:38;;;;;;;0.50;0.50;;;;;;;20.60;39.68;96229.50;6127007;23;20030;-64
2022/10/03 08:50:41;;;;;;;3.60;0.50;;;;;;;20.70;40.76;96226.91;6122148;23;20412;-64
2022/10/03 08:53:46;;;;;;;1.10;0.43;;;;;;;20.87;39.93;96228.13;6126712;23;20025;-65
2022/10/03 08:56:18;;;;;;;0.70;0.70;;;;;;;20.95;39.78;96233.66;6127507;23;20101;-65
2022/10/03 08:59:29;;;;;;;0.77;0.60;;;;;;;20.97;40.83;96238.84;6128636;23;20022;-65
2022/10/03 09:02:32;;;;;;;0.73;0.60;;;;;;;21.00;39.90;96229.75;6048429;23;20081;-66
2022/10/03 09:05:42;;;;;;;0.40;0.40;;;;;;;20.95;38.79;96233.66;6096037;23;20068;-64
2022/10/03 09:08:43;;;;;;;2.13;0.67;;;;;;;21.03;38.54;96238.31;6099480;23;20029;-66
2022/10/03 09:11:44;;;;;;;0.65;0.65;;;;;;;21.00;38.10;96238.59;6099756;23;20026;-66
2022/10/03 09:14:41;;;;;;;0.63;0.63;;;;;;;21.12;39.79;96243.81;6099709;23;20023;-67
2022/10/03 09:17:44;;;;;;;0.80;0.60;;;;;;;21.11;39.43;96240.34;6099794;23;20476;-66
2022/10/03 09:20:41;;;;;;;0.60;0.60;;;;;;;21.16;40.43;96240.75;6055288;23;20026;-67
2022/10/03 09:23:37;;;;;;;0.95;0.88;;;;;;;20.96;40.34;96243.31;6099703;23;20026;-65
2022/10/03 09:26:46;;;;;;;1.38;0.85;;;;;;;20.74;40.76;96241.59;6099202;23;20101;-65
2022/10/03 09:29:48;;;;;;;0.77;0.77;;;;;;;20.41;41.42;96249.59;6076905;23;20405;-65
2022/10/03 09:32:58;;;;;;;1.45;0.50;;;;;;;20.07;42.97;96252.38;6099487;23;20058;-67
2022/10/03 09:35:55;;;;;;;1.23;0.60;;;;;;;19.89;40.21;96262.63;6099618;23;20045;-66
2022/10/03 09:38:49;;;;;;;0.57;0.57;;;;;;;19.77;42.07;96259.16;6010606;23;20027;-67
2022/10/03 09:41:48;;;;;;;0.52;0.52;;;;;;;19.69;45.08;96260.63;6011082;23;20027;-66
2022/10/03 09:44:49;;;;;;;0.90;0.90;;;;;;;19.60;49.62;96266.69;6098965;23;20085;-66
2022/10/03 09:47:54;;;;;;;1.10;0.90;;;;;;;19.47;50.02;96271.25;6099326;23;20026;-66
2022/10/03 09:50:58;;;;;;;0.93;0.82;;;;;;;19.35;52.10;96288.97;6098929;23;20026;-66
2022/10/03 09:53:59;;;;;;;1.25;0.90;;;;;;;19.14;54.39;96281.72;6098010;23;20026;-66
2022/10/03 09:57:05;;;;;;;2.58;0.90;;;;;;;18.76;54.45;96267.75;6098878;23;20105;-67
2022/10/03 09:59:58;;;;;;;0.73;0.60;;;;;;;18.64;54.80;96280.13;6098929;23;20022;-66
2022/10/03 10:02:58;;;;;;;0.55;0.55;;;;;;;18.59;55.44;96282.25;6118445;23;20022;-66
2022/10/03 10:05:51;;;;;;;0.95;0.50;;;;;;;18.56;58.95;96291.28;6127958;23;20475;-67
2022/10/03 10:08:52;;;;;;;0.50;0.50;;;;;;;18.47;59.74;96281.38;6123012;23;20390;-66
2022/10/03 10:11:32;;;;;;;1.65;0.80;;;;;;;18.44;61.08;96278.00;6069467;23;20043;-65
2022/10/03 10:14:24;;;;;;;0.82;0.82;;;;;;;18.43;60.28;96276.31;6128437;23;20516;-66
2022/10/03 10:17:28;;;;;;;1.58;0.80;;;;;;;18.50;60.39;96274.06;6128124;23;20480;-66
2022/10/03 10:20:03;;;;;;;0.60;0.60;;;;;;;18.58;61.06;96267.34;6128003;23;20026;-66
2022/10/03 10:23:06;;;;;;;0.52;0.50;;;;;;;18.66;60.34;96263.16;6128210;23;20022;-67
2022/10/03 10:26:03;;;;;;;0.60;0.60;;;;;;;18.77;59.21;96264.13;6128212;23;20464;-66
2022/10/03 10:28:53;;;;;;;0.60;0.60;;;;;;;18.81;59.24;96261.16;6064767;23;20018;-66
2022/10/03 10:32:11;;;;;;;1.25;0.50;;;;;;;18.96;59.65;96266.22;6064774;23;20026;-66
2022/10/03 10:35:11;;;;;;;0.43;0.43;;;;;;;19.07;58.00;96265.41;6010246;23;20113;-67
2022/10/03 10:38:24;;;;;;;0.40;0.40;;;;;;;19.09;56.80;96273.28;6122816;23;20104;-67
2022/10/03 10:41:30;;;;;;;0.40;0.40;;;;;;;19.01;57.55;96276.47;6127547;23;20081;-65
2022/10/03 10:44:33;;;;;;;3.67;0.50;;;;;;;18.74;55.17;96280.25;6127890;23;20440;-66
2022/10/03 10:47:34;;;;;;;0.50;0.50;;;;;;;18.65;56.53;96276.50;6127447;23;20030;-65
2022/10/03 10:50:42;;;;;;;0.60;0.60;;;;;;;18.50;59.75;96278.50;6127242;23;20103;-66
2022/10/03 10:53:47;;;;;;;0.50;0.50;;;;;;;18.34;60.10;96276.16;6127734;23;20022;-66
2022/10/03 10:56:57;;;;;;;1.00;0.70;;;;;;;18.33;60.81;96270.00;6127814;23;20096;-66
2022/10/03 10:59:56;;;;;;;0.40;0.40;;;;;;;18.29;60.91;96258.81;6127813;23;20549;-66
2022/10/03 11:03:10;;;;;;;0.43;0.43;;;;;;;18.41;62.56;96248.25;6127118;23;20393;-66
2022/10/03 11:06:16;;;;;;;0.52;0.52;;;;;;;18.45;61.45;96236.47;6127246;23;20022;-66
2022/10/03 11:09:06;;;;;;;0.60;0.60;;;;;;;18.56;57.84;96243.63;6127562;23;20474;-66
2022/10/03 11:12:25;;;;;;;0.63;0.47;;;;;;;18.53;55.79;96241.19;6122757;23;20025;-66
2022/10/03 11:15:46;;;;;;;0.63;0.50;;;;;;;18.64;55.63;96230.66;6127245;23;20076;-66
2022/10/03 11:18:48;;;;;;;0.60;0.57;;;;;;;18.65;55.23;96234.97;6070222;23;20021;-66
2022/10/03 11:21:59;;;;;;;0.40;0.40;;;;;;;18.78;53.90;96229.59;6127176;23;20026;-66
2022/10/03 11:25:00;;;;;;;0.40;0.40;;;;;;;18.96;52.93;96234.44;6127623;23;20404;-65
2022/10/03 11:27:53;;;;;;;0.50;0.50;;;;;;;19.24;53.42;96229.69;6048696;23;20022;-66
2022/10/03 11:30:43;;;;;;;0.65;0.50;;;;;;;19.40;51.13;96229.31;6127490;23;20022;-67
2022/10/03 11:33:51;;;;;;;0.52;0.50;;;;;;;19.63;50.08;96233.75;6064194;23;20033;-66
2022/10/03 11:37:04;;;;;;;0.50;0.40;;;;;;;19.99;49.87;96244.19;6126433;23;20061;-66
2022/10/03 11:39:40;;;;;;;0.30;0.30;;;;;;;20.18;46.21;96236.44;5981549;24;20020;-67
2022/10/03 11:42:21;;;;;;;0.50;0.50;;;;;;;20.33;45.49;96228.16;5981364;24;20028;-66
2022/10/03 11:44:58;;;;;;;0.43;0.43;;;;;;;20.43;47.30;96226.44;6082737;23;20389;-66
2022/10/03 11:47:55;;;;;;;0.47;0.38;;;;;;;20.62;46.02;96227.53;6127472;23;20026;-66
2022/10/03 11:50:33;;;;;;;0.40;0.40;;;;;;;20.51;47.39;96224.94;6126983;23;20064;-67
2022/10/03 11:53:22;;;;;;;1.75;0.52;;;;;;;20.56;46.73;96223.59;6126956;23;20026;-66
2022/10/03 11:56:01;;;;;;;0.32;0.32;;;;;;;20.82;46.16;96223.22;6127249;23;20089;-66
2022/10/03 11:58:36;;;;;;;0.73;0.60;;;;;;;20.83;44.79;96218.75;6126836;23;20022;-66
2022/10/03 12:01:33;;;;;;;0.32;0.32;;;;;;;20.46;44.54;96230.63;6126537;23;20097;-66
2022/10/03 12:04:10;;;;;;;0.32;0.30;;;;;;;20.13;46.72;96235.97;6126013;23;20026;-66
2022/10/03 12:09:47;;;;;;;0.50;0.50;;;;;;;19.47;47.58;96245.56;6126819;23;20081;-66
2022/10/03 12:12:26;;;;;;;0.45;0.45;;;;;;;19.24;48.36;96256.19;6126838;23;20022;-67
2022/10/03 12:15:01;;;;;;;0.32;0.32;;;;;;;18.96;48.02;96250.31;6126739;23;20054;-66
2022/10/03 12:17:33;;;;;;;0.40;0.40;;;;;;;18.82;47.55;96246.94;6126818;23;20026;-66
2022/10/03 12:20:07;;;;;;;0.40;0.40;;;;;;;18.65;48.89;96240.28;6127151;23;20033;-66
2022/10/03 12:22:47;;;;;;;0.57;0.55;;;;;;;18.63;49.99;96252.78;6126723;23;20022;-66
2022/10/03 12:25:23;;;;;;;1.13;0.80;;;;;;;18.39;48.04;96239.59;6126735;23;20081;-67
2022/10/03 12:28:04;;;;;;;1.13;0.70;;;;;;;18.23;49.60;96267.19;6126785;23;20254;-67
2022/10/03 12:30:42;;;;;;;0.70;0.70;;;;;;;18.17;48.12;96252.63;6126268;23;20018;-67
2022/10/03 12:33:31;;;;;;;0.68;0.68;;;;;;;18.24;48.14;96247.69;6126891;23;20453;-66
2022/10/03 12:36:06;;;;;;;0.52;0.52;;;;;;;18.37;47.50;96238.84;6126742;23;20030;-66
2022/10/03 12:38:46;;;;;;;0.50;0.50;;;;;;;18.23;46.33;96234.56;6127129;23;20022;-67
2022/10/03 12:41:24;;;;;;;0.70;0.70;;;;;;;18.06;47.17;96240.13;6127111;23;20044;-66
2022/10/03 12:44:11;;;;;;;0.40;0.40;;;;;;;18.05;46.75;96240.25;6127003;23;20178;-66
2022/10/03 12:46:46;;;;;;;0.82;0.50;;;;;;;18.11;47.03;96241.63;6126588;23;20392;-66
2022/10/03 12:49:20;;;;;;;0.40;0.40;;;;;;;18.06;46.79;96241.91;6126914;23;20101;-66
2022/10/03 12:51:56;;;;;;;0.40;0.40;;;;;;;18.02;46.50;96243.09;6126571;23;20057;-66
2022/10/03 12:54:48;;;;;;;0.95;0.60;;;;;;;17.99;47.58;96238.91;6126759;23;20022;-67
2022/10/03 12:57:44;;;;;;;0.50;0.50;;;;;;;17.99;46.45;96236.25;6119366;23;20033;-66
2022/10/03 13:00:19;;;;;;;0.52;0.52;;;;;;;18.06;47.57;96249.84;6122235;23;20054;-68
2022/10/03 13:03:01;;;;;;;0.50;0.50;;;;;;;18.15;45.25;96221.94;6126438;23;20057;-67
2022/10/03 13:06:01;;;;;;;0.57;0.57;;;;;;;18.30;43.82;96222.56;6126824;23;20353;-67
2022/10/03 13:08:50;;;;;;;0.40;0.40;;;;;;;18.50;43.16;96212.28;6126768;23;20022;-66
2022/10/03 13:11:29;;;;;;;0.70;0.40;;;;;;;18.49;43.14;96222.06;6126630;23;20022;-67
2022/10/03 13:14:09;;;;;;;0.68;0.60;;;;;;;18.59;42.79;96218.69;6126924;23;20030;-66
2022/10/03 13:16:47;;;;;;;0.43;0.43;;;;;;;18.66;42.41;96207.53;6126542;23;20030;-67
2022/10/03 13:19:17;;;;;;;0.57;0.50;;;;;;;18.75;42.36;96210.44;6126666;23;20535;-67
2022/10/03 13:22:06;;;;;;;0.43;0.43;;;;;;;18.69;41.72;96206.44;6126596;23;20085;-66
2022/10/03 13:24:39;;;;;;;0.40;0.40;;;;;;;18.69;41.83;96212.59;6126938;23;20401;-66
2022/10/03 13:27:19;;;;;;;0.45;0.45;;;;;;;18.73;41.10;96210.56;6126498;23;20030;-67
2022/10/03 13:29:49;;;;;;;0.75;0.40;;;;;;;18.66;41.89;96196.09;6126803;23;20028;-66
2022/10/03 13:32:29;;;;;;;0.47;0.47;;;;;;;18.56;42.33;96207.41;6126985;23;20081;-66
2022/10/03 13:35:57;;;;;;;0.30;0.30;;;;;;;18.42;41.44;96208.41;6127148;23;20022;-66
2022/10/03 13:38:35;;;;;;;0.43;0.43;;;;;;;18.18;41.10;96211.09;6126457;23;20029;-66